UNEE/KEJ METAR and TAF weather

Enter ICAO airport designator
Station Type Date Time Source
UNEE METAR 2020/04/06 10:30 UTC NOAA

UNEE 061030Z 12003MPS CAVOK 12/M03 Q1013 R23/CLRD60 NOSIG RMK QFE737


Station Type Date Time Source
UNEE Decoded METAR 2020/04/06 10:30 UTC NOAA

Kemerovo, Russia (UNEE) 55-19-48N 086-04-48E
Apr 06, 2020 - 06:30 AM EDT / 2020.04.06 1030 UTC
Wind: from the ESE (120 degrees) at 7 MPH (6 KT):0
Visibility: greater than 7 mile(s):0
Temperature: 53 F (12 C)
Dew Point: 26 F (-3 C)
Relative Humidity: 34%
Pressure (altimeter): 29.91 in. Hg (1013 hPa)
ob: UNEE 061030Z 12003MPS CAVOK 12/M03 Q1013 R23/CLRD60 NOSIG RMK QFE737
cycle: 10

Station Type Date Time Source
UNEE TAF 2020/04/06 09:24 UTC NOAA

TAF UNEE 060800Z 0609/0709 17003G08MPS 9999 SCT020CB
TEMPO 0609/0612 11006MPS
TEMPO 0612/0618 23005MPS

Example: see airport list